sensor_id;sensor_type;location;lat;lon;timestamp;temperature;humidity
3256;DHT22;1640;48.504;9.224;2023-01-26T00:00:57;1.20;99.90
3256;DHT22;1640;48.504;9.224;2023-01-26T00:03:25;1.20;99.90
3256;DHT22;1640;48.504;9.224;2023-01-26T00:05:53;1.20;99.90
3256;DHT22;1640;48.504;9.224;2023-01-26T00:08:20;1.30;99.90
3256;DHT22;1640;48.504;9.224;2023-01-26T00:10:48;1.30;99.90
3256;DHT22;1640;48.504;9.224;2023-01-26T00:13:17;1.40;99.90
3256;DHT22;1640;48.504;9.224;2023-01-26T00:15:45;1.40;99.90
3256;DHT22;1640;48.504;9.224;2023-01-26T00:18:14;1.40;99.90
3256;DHT22;1640;48.504;9.224;2023-01-26T00:20:42;1.40;99.90
3256;DHT22;1640;48.504;9.224;2023-01-26T00:23:09;1.30;99.90
3256;DHT22;1640;48.504;9.224;2023-01-26T00:25:37;1.30;99.90
3256;DHT22;1640;48.504;9.224;2023-01-26T00:28:06;1.30;99.90
3256;DHT22;1640;48.504;9.224;2023-01-26T00:30:33;1.20;99.90
3256;DHT22;1640;48.504;9.224;2023-01-26T00:33:01;1.30;99.90
3256;DHT22;1640;48.504;9.224;2023-01-26T00:35:30;1.20;99.90
3256;DHT22;1640;48.504;9.224;2023-01-26T00:37:57;1.20;99.90
3256;DHT22;1640;48.504;9.224;2023-01-26T00:40:24;1.10;99.90
3256;DHT22;1640;48.504;9.224;2023-01-26T00:42:52;1.10;99.90
3256;DHT22;1640;48.504;9.224;2023-01-26T00:45:20;1.10;99.90
3256;DHT22;1640;48.504;9.224;2023-01-26T00:47:48;1.10;99.90
3256;DHT22;1640;48.504;9.224;2023-01-26T00:50:15;1.10;99.90
3256;DHT22;1640;48.504;9.224;2023-01-26T00:52:44;1.10;99.90
3256;DHT22;1640;48.504;9.224;2023-01-26T00:55:12;1.20;99.90
3256;DHT22;1640;48.504;9.224;2023-01-26T00:57:39;1.10;99.90
3256;DHT22;1640;48.504;9.224;2023-01-26T01:00:08;1.10;99.90
3256;DHT22;1640;48.504;9.224;2023-01-26T01:02:38;1.10;99.90
3256;DHT22;1640;48.504;9.224;2023-01-26T01:05:06;1.20;99.90
3256;DHT22;1640;48.504;9.224;2023-01-26T01:07:33;1.20;99.90
3256;DHT22;1640;48.504;9.224;2023-01-26T01:10:03;1.20;99.90
3256;DHT22;1640;48.504;9.224;2023-01-26T01:12:31;1.20;99.90
3256;DHT22;1640;48.504;9.224;2023-01-26T01:14:58;1.20;99.90
3256;DHT22;1640;48.504;9.224;2023-01-26T01:17:26;1.20;99.90
3256;DHT22;1640;48.504;9.224;2023-01-26T01:19:54;1.20;99.90
3256;DHT22;1640;48.504;9.224;2023-01-26T01:22:21;1.30;99.90
3256;DHT22;1640;48.504;9.224;2023-01-26T01:24:48;1.30;99.90
3256;DHT22;1640;48.504;9.224;2023-01-26T01:27:17;1.30;99.90
3256;DHT22;1640;48.504;9.224;2023-01-26T01:29:45;1.20;99.90
3256;DHT22;1640;48.504;9.224;2023-01-26T01:32:12;1.20;99.90
3256;DHT22;1640;48.504;9.224;2023-01-26T01:34:39;1.20;99.90
3256;DHT22;1640;48.504;9.224;2023-01-26T01:37:07;1.30;99.90
3256;DHT22;1640;48.504;9.224;2023-01-26T01:39:34;1.20;99.90
3256;DHT22;1640;48.504;9.224;2023-01-26T01:42:02;1.20;99.90
3256;DHT22;1640;48.504;9.224;2023-01-26T01:44:33;1.20;99.90
3256;DHT22;1640;48.504;9.224;2023-01-26T01:47:02;1.10;99.90
3256;DHT22;1640;48.504;9.224;2023-01-26T01:49:33;1.20;99.90
3256;DHT22;1640;48.504;9.224;2023-01-26T01:52:05;1.20;99.90
3256;DHT22;1640;48.504;9.224;2023-01-26T01:54:38;1.10;99.90
3256;DHT22;1640;48.504;9.224;2023-01-26T01:57:11;1.00;99.90
3256;DHT22;1640;48.504;9.224;2023-01-26T01:59:47;1.10;99.90
3256;DHT22;1640;48.504;9.224;2023-01-26T02:02:17;1.10;99.90
3256;DHT22;1640;48.504;9.224;2023-01-26T02:04:44;1.10;99.90
3256;DHT22;1640;48.504;9.224;2023-01-26T02:07:12;1.10;99.90
3256;DHT22;1640;48.504;9.224;2023-01-26T02:09:41;1.10;99.90
3256;DHT22;1640;48.504;9.224;2023-01-26T02:12:29;0.90;99.90
3256;DHT22;1640;48.504;9.224;2023-01-26T02:15:00;1.00;99.90
3256;DHT22;1640;48.504;9.224;2023-01-26T02:17:28;1.20;99.90
3256;DHT22;1640;48.504;9.224;2023-01-26T02:20:01;1.20;99.90
3256;DHT22;1640;48.504;9.224;2023-01-26T02:22:37;1.20;99.90
3256;DHT22;1640;48.504;9.224;2023-01-26T02:25:18;1.20;99.90
3256;DHT22;1640;48.504;9.224;2023-01-26T02:27:48;1.10;99.90
3256;DHT22;1640;48.504;9.224;2023-01-26T02:30:16;1.10;99.90
3256;DHT22;1640;48.504;9.224;2023-01-26T02:32:44;1.10;99.90
3256;DHT22;1640;48.504;9.224;2023-01-26T02:35:11;1.10;99.90
3256;DHT22;1640;48.504;9.224;2023-01-26T02:37:39;1.20;99.90
3256;DHT22;1640;48.504;9.224;2023-01-26T02:40:10;1.10;99.90
3256;DHT22;1640;48.504;9.224;2023-01-26T02:42:40;1.10;99.90
3256;DHT22;1640;48.504;9.224;2023-01-26T02:45:10;1.10;99.90
3256;DHT22;1640;48.504;9.224;2023-01-26T02:47:38;1.10;99.90
3256;DHT22;1640;48.504;9.224;2023-01-26T02:50:07;1.10;99.90
3256;DHT22;1640;48.504;9.224;2023-01-26T02:52:34;1.10;99.90
3256;DHT22;1640;48.504;9.224;2023-01-26T02:55:02;1.10;99.90
3256;DHT22;1640;48.504;9.224;2023-01-26T02:57:48;1.20;99.90
3256;DHT22;1640;48.504;9.224;2023-01-26T03:00:18;1.20;99.90
3256;DHT22;1640;48.504;9.224;2023-01-26T03:02:47;1.10;99.90
3256;DHT22;1640;48.504;9.224;2023-01-26T03:05:16;1.00;99.90
3256;DHT22;1640;48.504;9.224;2023-01-26T03:07:44;1.00;99.90
3256;DHT22;1640;48.504;9.224;2023-01-26T03:10:11;1.10;99.90
3256;DHT22;1640;48.504;9.224;2023-01-26T03:12:41;1.10;99.90
3256;DHT22;1640;48.504;9.224;2023-01-26T03:15:09;1.20;99.90
3256;DHT22;1640;48.504;9.224;2023-01-26T03:18:02;1.20;99.90
3256;DHT22;1640;48.504;9.224;2023-01-26T03:20:47;1.10;99.90
3256;DHT22;1640;48.504;9.224;2023-01-26T03:23:28;1.00;99.90
3256;DHT22;1640;48.504;9.224;2023-01-26T03:26:13;1.00;99.90
3256;DHT22;1640;48.504;9.224;2023-01-26T03:28:57;1.10;99.90
3256;DHT22;1640;48.504;9.224;2023-01-26T03:31:25;1.10;99.90
3256;DHT22;1640;48.504;9.224;2023-01-26T03:33:54;1.10;99.90
3256;DHT22;1640;48.504;9.224;2023-01-26T03:36:21;0.90;99.90
3256;DHT22;1640;48.504;9.224;2023-01-26T03:38:49;0.90;99.90
3256;DHT22;1640;48.504;9.224;2023-01-26T03:41:16;1.00;99.90
3256;DHT22;1640;48.504;9.224;2023-01-26T03:44:01;1.00;99.90
3256;DHT22;1640;48.504;9.224;2023-01-26T03:46:46;1.00;99.90
3256;DHT22;1640;48.504;9.224;2023-01-26T03:49:32;1.10;99.90
3256;DHT22;1640;48.504;9.224;2023-01-26T03:52:17;1.10;99.90
3256;DHT22;1640;48.504;9.224;2023-01-26T03:55:01;1.10;99.90
3256;DHT22;1640;48.504;9.224;2023-01-26T03:57:47;1.10;99.90
3256;DHT22;1640;48.504;9.224;2023-01-26T04:00:14;1.10;99.90
3256;DHT22;1640;48.504;9.224;2023-01-26T04:02:42;1.10;99.90
3256;DHT22;1640;48.504;9.224;2023-01-26T04:05:28;1.20;99.90
3256;DHT22;1640;48.504;9.224;2023-01-26T04:08:13;1.10;99.90
3256;DHT22;1640;48.504;9.224;2023-01-26T04:10:50;1.10;99.90
3256;DHT22;1640;48.504;9.224;2023-01-26T04:13:18;1.20;99.90
3256;DHT22;1640;48.504;9.224;2023-01-26T04:16:04;1.20;99.90
3256;DHT22;1640;48.504;9.224;2023-01-26T04:18:49;1.20;99.90
3256;DHT22;1640;48.504;9.224;2023-01-26T04:21:35;1.20;99.90
3256;DHT22;1640;48.504;9.224;2023-01-26T04:24:04;1.30;99.90
3256;DHT22;1640;48.504;9.224;2023-01-26T04:26:35;1.30;99.90
3256;DHT22;1640;48.504;9.224;2023-01-26T04:29:04;1.30;99.90
3256;DHT22;1640;48.504;9.224;2023-01-26T04:31:32;1.40;99.90
3256;DHT22;1640;48.504;9.224;2023-01-26T04:34:00;1.30;99.90
3256;DHT22;1640;48.504;9.224;2023-01-26T04:36:28;1.30;99.90
3256;DHT22;1640;48.504;9.224;2023-01-26T04:38:57;1.30;99.90
3256;DHT22;1640;48.504;9.224;2023-01-26T04:41:25;1.30;99.90
3256;DHT22;1640;48.504;9.224;2023-01-26T04:43:52;1.30;99.90
3256;DHT22;1640;48.504;9.224;2023-01-26T04:46:20;1.20;99.90
3256;DHT22;1640;48.504;9.224;2023-01-26T04:48:48;1.10;99.90
3256;DHT22;1640;48.504;9.224;2023-01-26T04:51:17;1.10;99.90
3256;DHT22;1640;48.504;9.224;2023-01-26T04:53:45;1.10;99.90
3256;DHT22;1640;48.504;9.224;2023-01-26T04:56:19;1.10;99.90
3256;DHT22;1640;48.504;9.224;2023-01-26T04:58:48;1.20;99.90
3256;DHT22;1640;48.504;9.224;2023-01-26T05:01:15;1.10;99.90
3256;DHT22;1640;48.504;9.224;2023-01-26T05:03:43;1.10;99.90
3256;DHT22;1640;48.504;9.224;2023-01-26T05:06:11;1.10;99.90
3256;DHT22;1640;48.504;9.224;2023-01-26T05:08:38;1.10;99.90
3256;DHT22;1640;48.504;9.224;2023-01-26T05:11:06;1.10;99.90
3256;DHT22;1640;48.504;9.224;2023-01-26T05:13:35;1.10;99.90
3256;DHT22;1640;48.504;9.224;2023-01-26T05:16:03;1.10;99.90
3256;DHT22;1640;48.504;9.224;2023-01-26T05:18:31;1.10;99.90
3256;DHT22;1640;48.504;9.224;2023-01-26T05:20:58;1.10;99.90
3256;DHT22;1640;48.504;9.224;2023-01-26T05:23:26;1.10;99.90
3256;DHT22;1640;48.504;9.224;2023-01-26T05:25:53;1.00;99.90
3256;DHT22;1640;48.504;9.224;2023-01-26T05:28:21;0.90;99.90
3256;DHT22;1640;48.504;9.224;2023-01-26T05:30:49;0.90;99.90
3256;DHT22;1640;48.504;9.224;2023-01-26T05:33:17;0.90;99.90
3256;DHT22;1640;48.504;9.224;2023-01-26T05:35:47;0.90;99.90
3256;DHT22;1640;48.504;9.224;2023-01-26T05:38:15;1.00;99.90
3256;DHT22;1640;48.504;9.224;2023-01-26T05:40:42;1.10;99.90
3256;DHT22;1640;48.504;9.224;2023-01-26T05:43:10;1.10;99.90
3256;DHT22;1640;48.504;9.224;2023-01-26T05:45:38;1.10;99.90
3256;DHT22;1640;48.504;9.224;2023-01-26T05:48:07;1.10;99.90
3256;DHT22;1640;48.504;9.224;2023-01-26T05:50:35;1.10;99.90
3256;DHT22;1640;48.504;9.224;2023-01-26T05:53:02;1.10;99.90
3256;DHT22;1640;48.504;9.224;2023-01-26T05:55:30;1.10;99.90
3256;DHT22;1640;48.504;9.224;2023-01-26T05:57:57;1.10;99.90
3256;DHT22;1640;48.504;9.224;2023-01-26T06:00:25;1.10;99.90
3256;DHT22;1640;48.504;9.224;2023-01-26T06:02:52;1.20;99.90
3256;DHT22;1640;48.504;9.224;2023-01-26T06:05:21;1.20;99.90
3256;DHT22;1640;48.504;9.224;2023-01-26T06:07:48;1.30;99.90
3256;DHT22;1640;48.504;9.224;2023-01-26T06:10:16;1.30;99.90
3256;DHT22;1640;48.504;9.224;2023-01-26T06:12:43;1.30;99.90
3256;DHT22;1640;48.504;9.224;2023-01-26T06:15:11;1.20;99.90
3256;DHT22;1640;48.504;9.224;2023-01-26T06:17:39;1.20;99.90
3256;DHT22;1640;48.504;9.224;2023-01-26T06:20:07;1.30;99.90
3256;DHT22;1640;48.504;9.224;2023-01-26T06:22:37;1.30;99.90
3256;DHT22;1640;48.504;9.224;2023-01-26T06:25:05;1.30;99.90
3256;DHT22;1640;48.504;9.224;2023-01-26T06:27:32;1.30;99.90
3256;DHT22;1640;48.504;9.224;2023-01-26T06:30:01;1.30;99.90
3256;DHT22;1640;48.504;9.224;2023-01-26T06:32:30;1.20;99.90
3256;DHT22;1640;48.504;9.224;2023-01-26T06:34:57;1.20;99.90
3256;DHT22;1640;48.504;9.224;2023-01-26T06:37:25;1.20;99.90
3256;DHT22;1640;48.504;9.224;2023-01-26T06:39:54;1.20;99.90
3256;DHT22;1640;48.504;9.224;2023-01-26T06:42:21;1.30;99.90
3256;DHT22;1640;48.504;9.224;2023-01-26T06:44:49;1.20;99.90
3256;DHT22;1640;48.504;9.224;2023-01-26T06:47:16;1.30;99.90
3256;DHT22;1640;48.504;9.224;2023-01-26T06:49:43;1.30;99.90
3256;DHT22;1640;48.504;9.224;2023-01-26T06:52:29;1.20;99.90
3256;DHT22;1640;48.504;9.224;2023-01-26T06:54:58;1.10;99.90
3256;DHT22;1640;48.504;9.224;2023-01-26T06:57:26;1.10;99.90
3256;DHT22;1640;48.504;9.224;2023-01-26T06:59:54;1.20;99.90
3256;DHT22;1640;48.504;9.224;2023-01-26T07:02:22;1.20;99.90
3256;DHT22;1640;48.504;9.224;2023-01-26T07:04:50;1.20;99.90
3256;DHT22;1640;48.504;9.224;2023-01-26T07:07:17;1.20;99.90
3256;DHT22;1640;48.504;9.224;2023-01-26T07:09:45;1.20;99.90
3256;DHT22;1640;48.504;9.224;2023-01-26T07:12:14;1.20;99.90
3256;DHT22;1640;48.504;9.224;2023-01-26T07:14:41;1.20;99.90
3256;DHT22;1640;48.504;9.224;2023-01-26T07:17:09;1.10;99.90
3256;DHT22;1640;48.504;9.224;2023-01-26T07:19:36;1.10;99.90
3256;DHT22;1640;48.504;9.224;2023-01-26T07:22:04;1.20;99.90
3256;DHT22;1640;48.504;9.224;2023-01-26T07:24:31;1.20;99.90
3256;DHT22;1640;48.504;9.224;2023-01-26T07:26:58;1.20;99.90
3256;DHT22;1640;48.504;9.224;2023-01-26T07:29:27;1.20;99.90
3256;DHT22;1640;48.504;9.224;2023-01-26T07:31:55;1.20;99.90
3256;DHT22;1640;48.504;9.224;2023-01-26T07:34:22;1.10;99.90
3256;DHT22;1640;48.504;9.224;2023-01-26T07:36:51;1.10;99.90
3256;DHT22;1640;48.504;9.224;2023-01-26T07:39:18;1.00;99.90
3256;DHT22;1640;48.504;9.224;2023-01-26T07:41:46;0.80;99.90
3256;DHT22;1640;48.504;9.224;2023-01-26T07:44:15;0.90;99.90
3256;DHT22;1640;48.504;9.224;2023-01-26T07:46:43;0.90;99.90
3256;DHT22;1640;48.504;9.224;2023-01-26T07:49:11;0.90;99.90
3256;DHT22;1640;48.504;9.224;2023-01-26T07:51:38;0.90;99.90
3256;DHT22;1640;48.504;9.224;2023-01-26T07:54:07;0.90;99.90
3256;DHT22;1640;48.504;9.224;2023-01-26T07:56:36;0.90;99.90
3256;DHT22;1640;48.504;9.224;2023-01-26T07:59:04;0.90;99.90
3256;DHT22;1640;48.504;9.224;2023-01-26T08:01:31;0.90;99.90
3256;DHT22;1640;48.504;9.224;2023-01-26T08:04:00;0.90;99.90
3256;DHT22;1640;48.504;9.224;2023-01-26T08:06:27;0.90;99.90
3256;DHT22;1640;48.504;9.224;2023-01-26T08:08:55;0.90;99.90
3256;DHT22;1640;48.504;9.224;2023-01-26T08:11:23;0.90;99.90
3256;DHT22;1640;48.504;9.224;2023-01-26T08:13:51;0.90;99.90
3256;DHT22;1640;48.504;9.224;2023-01-26T08:16:19;0.90;99.90
3256;DHT22;1640;48.504;9.224;2023-01-26T08:18:46;0.90;99.90
3256;DHT22;1640;48.504;9.224;2023-01-26T08:21:16;0.90;99.90
3256;DHT22;1640;48.504;9.224;2023-01-26T08:23:47;0.70;99.90
3256;DHT22;1640;48.504;9.224;2023-01-26T08:26:15;0.70;99.90
3256;DHT22;1640;48.504;9.224;2023-01-26T08:28:43;0.70;99.90
3256;DHT22;1640;48.504;9.224;2023-01-26T08:31:13;0.70;99.90
3256;DHT22;1640;48.504;9.224;2023-01-26T08:33:51;0.70;99.90
3256;DHT22;1640;48.504;9.224;2023-01-26T08:36:21;0.60;99.90
3256;DHT22;1640;48.504;9.224;2023-01-26T08:38:49;0.60;99.90
3256;DHT22;1640;48.504;9.224;2023-01-26T08:41:16;0.60;99.90
3256;DHT22;1640;48.504;9.224;2023-01-26T08:43:44;0.50;99.90
3256;DHT22;1640;48.504;9.224;2023-01-26T08:46:11;0.40;99.90
3256;DHT22;1640;48.504;9.224;2023-01-26T08:48:38;0.50;99.90
3256;DHT22;1640;48.504;9.224;2023-01-26T08:51:07;0.50;99.90
3256;DHT22;1640;48.504;9.224;2023-01-26T08:53:36;0.50;99.90
3256;DHT22;1640;48.504;9.224;2023-01-26T08:56:05;0.50;99.90
3256;DHT22;1640;48.504;9.224;2023-01-26T08:58:33;0.50;99.90
3256;DHT22;1640;48.504;9.224;2023-01-26T09:01:03;0.40;99.90
3256;DHT22;1640;48.504;9.224;2023-01-26T09:03:31;0.40;99.90
3256;DHT22;1640;48.504;9.224;2023-01-26T09:05:59;0.40;99.90
3256;DHT22;1640;48.504;9.224;2023-01-26T09:08:27;0.40;99.90
3256;DHT22;1640;48.504;9.224;2023-01-26T09:10:56;0.40;99.90
3256;DHT22;1640;48.504;9.224;2023-01-26T09:13:24;0.50;99.90
3256;DHT22;1640;48.504;9.224;2023-01-26T09:15:51;0.40;99.90
3256;DHT22;1640;48.504;9.224;2023-01-26T09:18:18;0.50;99.90
3256;DHT22;1640;48.504;9.224;2023-01-26T09:20:46;0.50;99.90
3256;DHT22;1640;48.504;9.224;2023-01-26T09:23:14;0.40;99.90
3256;DHT22;1640;48.504;9.224;2023-01-26T09:25:43;0.40;99.90
3256;DHT22;1640;48.504;9.224;2023-01-26T09:28:12;0.40;99.90
3256;DHT22;1640;48.504;9.224;2023-01-26T09:30:40;0.40;99.90
3256;DHT22;1640;48.504;9.224;2023-01-26T09:33:07;0.40;99.90
3256;DHT22;1640;48.504;9.224;2023-01-26T09:35:35;0.50;99.90
3256;DHT22;1640;48.504;9.224;2023-01-26T09:38:02;0.60;99.90
3256;DHT22;1640;48.504;9.224;2023-01-26T09:40:36;0.50;99.90
3256;DHT22;1640;48.504;9.224;2023-01-26T09:43:19;0.70;99.90
3256;DHT22;1640;48.504;9.224;2023-01-26T09:45:56;0.70;99.90
3256;DHT22;1640;48.504;9.224;2023-01-26T09:48:34;0.80;99.90
3256;DHT22;1640;48.504;9.224;2023-01-26T09:51:09;0.90;99.90
3256;DHT22;1640;48.504;9.224;2023-01-26T09:53:44;0.80;99.90
3256;DHT22;1640;48.504;9.224;2023-01-26T09:56:18;0.80;99.90
3256;DHT22;1640;48.504;9.224;2023-01-26T09:58:52;0.80;99.90
3256;DHT22;1640;48.504;9.224;2023-01-26T10:01:26;0.80;99.90
3256;DHT22;1640;48.504;9.224;2023-01-26T10:04:00;0.90;99.90
3256;DHT22;1640;48.504;9.224;2023-01-26T10:06:30;1.00;99.90
3256;DHT22;1640;48.504;9.224;2023-01-26T10:09:00;1.00;99.90
3256;DHT22;1640;48.504;9.224;2023-01-26T10:11:32;1.00;99.90
3256;DHT22;1640;48.504;9.224;2023-01-26T10:14:10;1.00;99.90
3256;DHT22;1640;48.504;9.224;2023-01-26T10:16:40;0.90;99.90
3256;DHT22;1640;48.504;9.224;2023-01-26T10:19:12;1.00;99.90
3256;DHT22;1640;48.504;9.224;2023-01-26T10:21:44;1.10;99.90
3256;DHT22;1640;48.504;9.224;2023-01-26T10:24:13;1.20;99.90
3256;DHT22;1640;48.504;9.224;2023-01-26T10:26:43;1.30;99.90
3256;DHT22;1640;48.504;9.224;2023-01-26T10:29:14;1.40;99.90
3256;DHT22;1640;48.504;9.224;2023-01-26T10:31:43;1.50;99.90
3256;DHT22;1640;48.504;9.224;2023-01-26T10:34:13;1.50;99.90
3256;DHT22;1640;48.504;9.224;2023-01-26T10:36:44;1.50;99.90
3256;DHT22;1640;48.504;9.224;2023-01-26T10:39:13;1.60;99.90
3256;DHT22;1640;48.504;9.224;2023-01-26T10:41:55;1.40;99.90
3256;DHT22;1640;48.504;9.224;2023-01-26T10:44:31;1.30;99.90
3256;DHT22;1640;48.504;9.224;2023-01-26T10:47:05;1.30;99.90
3256;DHT22;1640;48.504;9.224;2023-01-26T10:49:33;1.30;99.90
3256;DHT22;1640;48.504;9.224;2023-01-26T10:52:13;1.20;99.90
3256;DHT22;1640;48.504;9.224;2023-01-26T10:54:42;1.20;99.90
3256;DHT22;1640;48.504;9.224;2023-01-26T10:57:16;1.20;99.90
3256;DHT22;1640;48.504;9.224;2023-01-26T10:59:51;1.10;99.90
3256;DHT22;1640;48.504;9.224;2023-01-26T11:02:22;1.10;99.90
3256;DHT22;1640;48.504;9.224;2023-01-26T11:05:17;1.00;99.90
3256;DHT22;1640;48.504;9.224;2023-01-26T11:07:46;1.00;99.90
3256;DHT22;1640;48.504;9.224;2023-01-26T11:10:21;1.10;99.90
3256;DHT22;1640;48.504;9.224;2023-01-26T11:12:49;1.10;99.90
3256;DHT22;1640;48.504;9.224;2023-01-26T11:15:20;1.00;99.90
3256;DHT22;1640;48.504;9.224;2023-01-26T11:17:51;1.10;99.90
3256;DHT22;1640;48.504;9.224;2023-01-26T11:20:49;1.00;99.90
3256;DHT22;1640;48.504;9.224;2023-01-26T11:26:37;1.00;99.90
3256;DHT22;1640;48.504;9.224;2023-01-26T11:29:30;0.90;99.90
3256;DHT22;1640;48.504;9.224;2023-01-26T11:32:07;1.00;99.90
3256;DHT22;1640;48.504;9.224;2023-01-26T11:34:43;1.10;99.90
3256;DHT22;1640;48.504;9.224;2023-01-26T11:37:35;1.10;99.90
3256;DHT22;1640;48.504;9.224;2023-01-26T11:40:19;1.00;99.90
3256;DHT22;1640;48.504;9.224;2023-01-26T11:48:45;0.60;99.90
3256;DHT22;1640;48.504;9.224;2023-01-26T11:51:21;0.70;99.90
3256;DHT22;1640;48.504;9.224;2023-01-26T11:54:09;0.70;99.90
3256;DHT22;1640;48.504;9.224;2023-01-26T11:56:46;0.70;99.90
3256;DHT22;1640;48.504;9.224;2023-01-26T11:59:17;0.60;99.90
3256;DHT22;1640;48.504;9.224;2023-01-26T12:01:49;0.60;99.90
3256;DHT22;1640;48.504;9.224;2023-01-26T12:04:21;0.60;99.90
3256;DHT22;1640;48.504;9.224;2023-01-26T12:06:53;0.60;99.90
3256;DHT22;1640;48.504;9.224;2023-01-26T12:09:25;0.60;99.90
3256;DHT22;1640;48.504;9.224;2023-01-26T12:12:01;0.60;99.90
3256;DHT22;1640;48.504;9.224;2023-01-26T12:14:35;0.70;99.90
3256;DHT22;1640;48.504;9.224;2023-01-26T12:17:26;0.70;99.90
3256;DHT22;1640;48.504;9.224;2023-01-26T12:20:02;0.80;99.90
3256;DHT22;1640;48.504;9.224;2023-01-26T12:22:33;0.90;99.90
3256;DHT22;1640;48.504;9.224;2023-01-26T12:25:07;0.90;99.90
3256;DHT22;1640;48.504;9.224;2023-01-26T12:27:43;0.80;99.90
3256;DHT22;1640;48.504;9.224;2023-01-26T12:30:36;0.60;99.90
3256;DHT22;1640;48.504;9.224;2023-01-26T12:33:04;0.60;99.90
3256;DHT22;1640;48.504;9.224;2023-01-26T12:35:47;0.60;99.90
3256;DHT22;1640;48.504;9.224;2023-01-26T12:38:19;0.50;99.90
3256;DHT22;1640;48.504;9.224;2023-01-26T12:41:00;0.40;99.90
3256;DHT22;1640;48.504;9.224;2023-01-26T12:43:44;0.50;99.90
3256;DHT22;1640;48.504;9.224;2023-01-26T12:46:14;0.40;99.90
3256;DHT22;1640;48.504;9.224;2023-01-26T12:48:45;0.40;99.90
3256;DHT22;1640;48.504;9.224;2023-01-26T12:51:20;0.40;99.90
3256;DHT22;1640;48.504;9.224;2023-01-26T12:53:55;0.40;99.90
3256;DHT22;1640;48.504;9.224;2023-01-26T12:56:27;0.40;99.90
3256;DHT22;1640;48.504;9.224;2023-01-26T12:58:57;0.40;99.90
3256;DHT22;1640;48.504;9.224;2023-01-26T13:01:37;0.40;99.90
3256;DHT22;1640;48.504;9.224;2023-01-26T13:04:08;0.30;99.90
3256;DHT22;1640;48.504;9.224;2023-01-26T13:06:38;0.30;99.90
3256;DHT22;1640;48.504;9.224;2023-01-26T13:09:20;0.40;99.90
3256;DHT22;1640;48.504;9.224;2023-01-26T13:11:50;0.40;99.90
3256;DHT22;1640;48.504;9.224;2023-01-26T13:14:35;0.40;99.90
3256;DHT22;1640;48.504;9.224;2023-01-26T13:17:45;0.40;99.90
3256;DHT22;1640;48.504;9.224;2023-01-26T13:20:41;0.50;99.90
3256;DHT22;1640;48.504;9.224;2023-01-26T13:29:28;0.50;99.90
3256;DHT22;1640;48.504;9.224;2023-01-26T13:31:59;0.40;99.90
3256;DHT22;1640;48.504;9.224;2023-01-26T13:34:30;0.50;99.90
3256;DHT22;1640;48.504;9.224;2023-01-26T13:37:07;0.40;99.90
3256;DHT22;1640;48.504;9.224;2023-01-26T13:39:37;0.40;99.90
3256;DHT22;1640;48.504;9.224;2023-01-26T13:42:19;0.40;99.90
3256;DHT22;1640;48.504;9.224;2023-01-26T13:44:51;0.40;99.90
3256;DHT22;1640;48.504;9.224;2023-01-26T13:47:23;0.30;99.90
3256;DHT22;1640;48.504;9.224;2023-01-26T13:49:52;0.30;99.90
3256;DHT22;1640;48.504;9.224;2023-01-26T13:52:21;0.40;99.90
3256;DHT22;1640;48.504;9.224;2023-01-26T13:54:51;0.40;99.90
3256;DHT22;1640;48.504;9.224;2023-01-26T13:57:21;0.40;99.90
3256;DHT22;1640;48.504;9.224;2023-01-26T13:59:51;0.40;99.90
3256;DHT22;1640;48.504;9.224;2023-01-26T14:02:24;0.40;99.90
3256;DHT22;1640;48.504;9.224;2023-01-26T14:04:52;0.30;99.90
3256;DHT22;1640;48.504;9.224;2023-01-26T14:07:24;0.30;99.90
3256;DHT22;1640;48.504;9.224;2023-01-26T14:09:54;0.30;99.90
3256;DHT22;1640;48.504;9.224;2023-01-26T14:12:25;0.30;99.90
3256;DHT22;1640;48.504;9.224;2023-01-26T14:14:55;0.30;99.90
3256;DHT22;1640;48.504;9.224;2023-01-26T14:17:26;0.30;99.90
3256;DHT22;1640;48.504;9.224;2023-01-26T14:19:54;0.30;99.90
3256;DHT22;1640;48.504;9.224;2023-01-26T14:22:22;0.40;99.90
3256;DHT22;1640;48.504;9.224;2023-01-26T14:24:51;0.40;99.90
3256;DHT22;1640;48.504;9.224;2023-01-26T14:27:31;0.40;99.90
3256;DHT22;1640;48.504;9.224;2023-01-26T14:30:00;0.30;99.90
3256;DHT22;1640;48.504;9.224;2023-01-26T14:32:30;0.30;99.90
3256;DHT22;1640;48.504;9.224;2023-01-26T14:34:59;0.30;99.90
3256;DHT22;1640;48.504;9.224;2023-01-26T14:37:27;0.20;99.90
3256;DHT22;1640;48.504;9.224;2023-01-26T14:40:19;0.20;99.90
3256;DHT22;1640;48.504;9.224;2023-01-26T14:42:50;0.20;99.90
3256;DHT22;1640;48.504;9.224;2023-01-26T14:45:25;0.20;99.90
3256;DHT22;1640;48.504;9.224;2023-01-26T14:47:54;0.10;99.90
3256;DHT22;1640;48.504;9.224;2023-01-26T14:50:26;0.00;99.90
3256;DHT22;1640;48.504;9.224;2023-01-26T14:52:55;0.00;99.90
3256;DHT22;1640;48.504;9.224;2023-01-26T14:55:25;0.00;99.90
3256;DHT22;1640;48.504;9.224;2023-01-26T14:57:56;0.00;99.90
3256;DHT22;1640;48.504;9.224;2023-01-26T15:00:26;-0.10;99.90
3256;DHT22;1640;48.504;9.224;2023-01-26T15:02:56;0.00;99.90
3256;DHT22;1640;48.504;9.224;2023-01-26T15:05:31;0.00;99.90
3256;DHT22;1640;48.504;9.224;2023-01-26T15:08:00;0.00;99.90
3256;DHT22;1640;48.504;9.224;2023-01-26T15:10:34;0.00;99.90
3256;DHT22;1640;48.504;9.224;2023-01-26T15:13:05;0.10;99.90
3256;DHT22;1640;48.504;9.224;2023-01-26T15:15:36;0.00;99.90
3256;DHT22;1640;48.504;9.224;2023-01-26T15:18:17;0.00;99.90
3256;DHT22;1640;48.504;9.224;2023-01-26T15:20:53;0.00;99.90
3256;DHT22;1640;48.504;9.224;2023-01-26T15:23:27;0.00;99.90
3256;DHT22;1640;48.504;9.224;2023-01-26T15:26:02;0.00;99.90
3256;DHT22;1640;48.504;9.224;2023-01-26T15:28:31;-0.10;99.90
3256;DHT22;1640;48.504;9.224;2023-01-26T15:31:00;-0.10;99.90
3256;DHT22;1640;48.504;9.224;2023-01-26T15:33:54;-0.10;99.90
3256;DHT22;1640;48.504;9.224;2023-01-26T15:36:27;-0.10;99.90
3256;DHT22;1640;48.504;9.224;2023-01-26T15:38:58;-0.10;99.90
3256;DHT22;1640;48.504;9.224;2023-01-26T15:41:26;-0.10;99.90
3256;DHT22;1640;48.504;9.224;2023-01-26T15:43:55;-0.10;99.90
3256;DHT22;1640;48.504;9.224;2023-01-26T15:46:23;0.00;99.90
3256;DHT22;1640;48.504;9.224;2023-01-26T15:48:50;-0.10;99.90
3256;DHT22;1640;48.504;9.224;2023-01-26T15:51:18;-0.10;99.90
3256;DHT22;1640;48.504;9.224;2023-01-26T15:53:46;-0.10;99.90
3256;DHT22;1640;48.504;9.224;2023-01-26T15:56:15;-0.10;99.90
3256;DHT22;1640;48.504;9.224;2023-01-26T15:58:42;-0.10;99.90
3256;DHT22;1640;48.504;9.224;2023-01-26T16:01:19;-0.10;99.90
3256;DHT22;1640;48.504;9.224;2023-01-26T16:03:47;-0.10;99.90
3256;DHT22;1640;48.504;9.224;2023-01-26T16:06:20;-0.10;99.90
3256;DHT22;1640;48.504;9.224;2023-01-26T16:08:48;-0.10;99.90
3256;DHT22;1640;48.504;9.224;2023-01-26T16:11:16;-0.10;99.90
3256;DHT22;1640;48.504;9.224;2023-01-26T16:13:44;0.00;99.90
3256;DHT22;1640;48.504;9.224;2023-01-26T16:16:14;0.00;99.90
3256;DHT22;1640;48.504;9.224;2023-01-26T16:18:42;0.00;99.90
3256;DHT22;1640;48.504;9.224;2023-01-26T16:21:18;-0.10;99.90
3256;DHT22;1640;48.504;9.224;2023-01-26T16:23:46;0.00;99.90
3256;DHT22;1640;48.504;9.224;2023-01-26T16:26:16;0.00;99.90
3256;DHT22;1640;48.504;9.224;2023-01-26T16:28:44;-0.10;99.90
3256;DHT22;1640;48.504;9.224;2023-01-26T16:31:15;-0.20;99.90
3256;DHT22;1640;48.504;9.224;2023-01-26T16:33:44;-0.10;99.90
3256;DHT22;1640;48.504;9.224;2023-01-26T16:36:12;-0.10;99.90
3256;DHT22;1640;48.504;9.224;2023-01-26T16:38:40;-0.10;99.90
3256;DHT22;1640;48.504;9.224;2023-01-26T16:41:13;-0.10;99.90
3256;DHT22;1640;48.504;9.224;2023-01-26T16:43:41;-0.10;99.90
3256;DHT22;1640;48.504;9.224;2023-01-26T16:46:09;-0.10;99.90
3256;DHT22;1640;48.504;9.224;2023-01-26T16:48:39;-0.10;99.90
3256;DHT22;1640;48.504;9.224;2023-01-26T16:51:14;-0.10;99.90
3256;DHT22;1640;48.504;9.224;2023-01-26T16:53:43;-0.10;99.90
3256;DHT22;1640;48.504;9.224;2023-01-26T16:56:11;0.00;99.90
3256;DHT22;1640;48.504;9.224;2023-01-26T16:58:39;-0.10;99.90